sensor_id;sensor_type;location;lat;lon;timestamp;pressure;altitude;pressure_sealevel;temperature;humidity
46015;BME280;36844;51.898;-0.874;2022-10-31T00:01:14;100492.78;;;19.60;
46015;BME280;36844;51.898;-0.874;2022-10-31T00:03:39;100495.16;;;19.58;
46015;BME280;36844;51.898;-0.874;2022-10-31T00:06:04;100496.31;;;19.57;
46015;BME280;36844;51.898;-0.874;2022-10-31T00:08:30;100492.09;;;19.56;
46015;BME280;36844;51.898;-0.874;2022-10-31T00:10:55;100496.72;;;19.56;
46015;BME280;36844;51.898;-0.874;2022-10-31T00:13:20;100497.13;;;19.54;
46015;BME280;36844;51.898;-0.874;2022-10-31T00:15:45;100494.84;;;19.53;
46015;BME280;36844;51.898;-0.874;2022-10-31T00:18:11;100497.53;;;19.53;
46015;BME280;36844;51.898;-0.874;2022-10-31T00:20:37;100494.47;;;19.51;
46015;BME280;36844;51.898;-0.874;2022-10-31T00:23:03;100486.78;;;19.49;
46015;BME280;36844;51.898;-0.874;2022-10-31T00:25:29;100489.47;;;19.49;
46015;BME280;36844;51.898;-0.874;2022-10-31T00:27:57;100484.47;;;19.48;
46015;BME280;36844;51.898;-0.874;2022-10-31T00:30:22;100476.78;;;19.46;
46015;BME280;36844;51.898;-0.874;2022-10-31T00:32:47;100477.16;;;19.45;
46015;BME280;36844;51.898;-0.874;2022-10-31T00:35:13;100471.78;;;19.45;
46015;BME280;36844;51.898;-0.874;2022-10-31T00:37:38;100471.44;;;19.43;
46015;BME280;36844;51.898;-0.874;2022-10-31T00:40:03;100471.44;;;19.43;
46015;BME280;36844;51.898;-0.874;2022-10-31T00:42:28;100474.53;;;19.41;
46015;BME280;36844;51.898;-0.874;2022-10-31T00:44:54;100473.75;;;19.41;
46015;BME280;36844;51.898;-0.874;2022-10-31T00:47:19;100470.28;;;19.40;
46015;BME280;36844;51.898;-0.874;2022-10-31T00:49:44;100466.09;;;19.39;
46015;BME280;36844;51.898;-0.874;2022-10-31T00:52:09;100462.59;;;19.39;
46015;BME280;36844;51.898;-0.874;2022-10-31T00:54:35;100465.34;;;19.35;
46015;BME280;36844;51.898;-0.874;2022-10-31T00:57:00;100465.34;;;19.35;
46015;BME280;36844;51.898;-0.874;2022-10-31T00:59:25;100461.88;;;19.35;
46015;BME280;36844;51.898;-0.874;2022-10-31T01:01:50;100468.44;;;19.34;
46015;BME280;36844;51.898;-0.874;2022-10-31T01:04:15;100468.84;;;19.32;
46015;BME280;36844;51.898;-0.874;2022-10-31T01:06:41;100472.72;;;19.31;
46015;BME280;36844;51.898;-0.874;2022-10-31T01:09:06;100481.97;;;19.30;
46015;BME280;36844;51.898;-0.874;2022-10-31T01:11:32;100483.16;;;19.29;
46015;BME280;36844;51.898;-0.874;2022-10-31T01:13:57;100481.63;;;19.28;
46015;BME280;36844;51.898;-0.874;2022-10-31T01:16:23;100480.88;;;19.28;
46015;BME280;36844;51.898;-0.874;2022-10-31T01:18:48;100475.88;;;19.26;
46015;BME280;36844;51.898;-0.874;2022-10-31T01:21:15;100477.81;;;19.26;
46015;BME280;36844;51.898;-0.874;2022-10-31T01:23:41;100483.97;;;19.26;
46015;BME280;36844;51.898;-0.874;2022-10-31T01:26:08;100480.13;;;19.24;
46015;BME280;36844;51.898;-0.874;2022-10-31T01:28:35;100479.38;;;19.23;
46015;BME280;36844;51.898;-0.874;2022-10-31T01:31:05;100475.16;;;19.22;
46015;BME280;36844;51.898;-0.874;2022-10-31T01:33:30;100479.00;;;19.21;
46015;BME280;36844;51.898;-0.874;2022-10-31T01:35:56;100470.91;;;19.21;
46015;BME280;36844;51.898;-0.874;2022-10-31T01:38:21;100465.16;;;19.19;
46015;BME280;36844;51.898;-0.874;2022-10-31T01:40:46;100466.31;;;19.18;
46015;BME280;36844;51.898;-0.874;2022-10-31T01:43:12;100467.47;;;19.17;
46015;BME280;36844;51.898;-0.874;2022-10-31T01:45:38;100468.25;;;19.18;
46015;BME280;36844;51.898;-0.874;2022-10-31T01:48:03;100474.03;;;19.16;
46015;BME280;36844;51.898;-0.874;2022-10-31T01:50:33;100464.44;;;19.15;
46015;BME280;36844;51.898;-0.874;2022-10-31T01:52:59;100466.34;;;19.15;
46015;BME280;36844;51.898;-0.874;2022-10-31T01:55:28;100457.84;;;19.13;
46015;BME280;36844;51.898;-0.874;2022-10-31T01:57:55;100457.16;;;19.12;
46015;BME280;36844;51.898;-0.874;2022-10-31T02:00:22;100455.59;;;19.11;
46015;BME280;36844;51.898;-0.874;2022-10-31T02:02:47;100454.03;;;19.10;
46015;BME280;36844;51.898;-0.874;2022-10-31T02:05:15;100454.03;;;19.10;
46015;BME280;36844;51.898;-0.874;2022-10-31T02:10:25;100451.00;;;19.08;
46015;BME280;36844;51.898;-0.874;2022-10-31T02:12:51;100456.78;;;19.07;
46015;BME280;36844;51.898;-0.874;2022-10-31T02:15:17;100446.41;;;19.05;
46015;BME280;36844;51.898;-0.874;2022-10-31T02:17:42;100441.00;;;19.05;
46015;BME280;36844;51.898;-0.874;2022-10-31T02:20:18;100442.19;;;19.04;
46015;BME280;36844;51.898;-0.874;2022-10-31T02:27:54;100445.66;;;19.01;
46015;BME280;36844;51.898;-0.874;2022-10-31T02:30:27;100442.22;;;19.01;
46015;BME280;36844;51.898;-0.874;2022-10-31T02:33:01;100444.16;;;19.00;
46015;BME280;36844;51.898;-0.874;2022-10-31T02:46:34;100440.34;;;18.94;
46015;BME280;36844;51.898;-0.874;2022-10-31T02:49:07;100431.47;;;18.94;
46015;BME280;36844;51.898;-0.874;2022-10-31T02:51:34;100428.78;;;18.94;
46015;BME280;36844;51.898;-0.874;2022-10-31T02:54:00;100430.72;;;18.93;
46015;BME280;36844;51.898;-0.874;2022-10-31T02:56:25;100432.66;;;18.93;
46015;BME280;36844;51.898;-0.874;2022-10-31T02:58:52;100431.88;;;18.92;
46015;BME280;36844;51.898;-0.874;2022-10-31T03:06:49;100438.09;;;18.89;
46015;BME280;36844;51.898;-0.874;2022-10-31T03:11:46;100431.16;;;18.88;
46015;BME280;36844;51.898;-0.874;2022-10-31T03:14:17;100425.00;;;18.88;
46015;BME280;36844;51.898;-0.874;2022-10-31T03:16:48;100434.25;;;18.87;
46015;BME280;36844;51.898;-0.874;2022-10-31T03:19:18;100433.47;;;18.86;
46015;BME280;36844;51.898;-0.874;2022-10-31T03:21:47;100428.50;;;18.85;
46015;BME280;36844;51.898;-0.874;2022-10-31T03:24:15;100436.59;;;18.85;
46015;BME280;36844;51.898;-0.874;2022-10-31T03:26:41;100438.53;;;18.84;
46015;BME280;36844;51.898;-0.874;2022-10-31T03:29:08;100437.78;;;18.84;
46015;BME280;36844;51.898;-0.874;2022-10-31T03:31:36;100438.53;;;18.84;
46015;BME280;36844;51.898;-0.874;2022-10-31T03:34:03;100437.41;;;18.82;
46015;BME280;36844;51.898;-0.874;2022-10-31T03:36:29;100442.06;;;18.81;
46015;BME280;36844;51.898;-0.874;2022-10-31T03:38:55;100442.06;;;18.81;
46015;BME280;36844;51.898;-0.874;2022-10-31T03:41:23;100440.09;;;18.82;
46015;BME280;36844;51.898;-0.874;2022-10-31T03:43:54;100437.03;;;18.80;
46015;BME280;36844;51.898;-0.874;2022-10-31T03:46:20;100437.44;;;18.78;
46015;BME280;36844;51.898;-0.874;2022-10-31T03:48:46;100431.25;;;18.77;
46015;BME280;36844;51.898;-0.874;2022-10-31T03:51:14;100428.56;;;18.77;
46015;BME280;36844;51.898;-0.874;2022-10-31T03:53:52;100427.81;;;18.77;
46015;BME280;36844;51.898;-0.874;2022-10-31T03:59:29;100416.63;;;18.75;
46015;BME280;36844;51.898;-0.874;2022-10-31T04:01:57;100423.25;;;18.74;
46015;BME280;36844;51.898;-0.874;2022-10-31T04:04:24;100419.00;;;18.73;
46015;BME280;36844;51.898;-0.874;2022-10-31T04:06:50;100414.75;;;18.72;
46015;BME280;36844;51.898;-0.874;2022-10-31T04:09:15;100411.28;;;18.71;
46015;BME280;36844;51.898;-0.874;2022-10-31T04:11:43;100410.50;;;18.71;
46015;BME280;36844;51.898;-0.874;2022-10-31T04:14:10;100404.34;;;18.70;
46015;BME280;36844;51.898;-0.874;2022-10-31T04:16:36;100394.31;;;18.71;
46015;BME280;36844;51.898;-0.874;2022-10-31T04:19:01;100389.34;;;18.69;
46015;BME280;36844;51.898;-0.874;2022-10-31T04:21:27;100387.03;;;18.68;
46015;BME280;36844;51.898;-0.874;2022-10-31T04:23:53;100389.72;;;18.68;
46015;BME280;36844;51.898;-0.874;2022-10-31T04:26:18;100384.78;;;18.66;
46015;BME280;36844;51.898;-0.874;2022-10-31T04:28:43;100384.78;;;18.66;
46015;BME280;36844;51.898;-0.874;2022-10-31T04:31:10;100384.78;;;18.66;
46015;BME280;36844;51.898;-0.874;2022-10-31T04:33:36;100394.00;;;18.65;
46015;BME280;36844;51.898;-0.874;2022-10-31T04:36:01;100384.38;;;18.64;
46015;BME280;36844;51.898;-0.874;2022-10-31T04:38:26;100385.56;;;18.63;
46015;BME280;36844;51.898;-0.874;2022-10-31T04:40:51;100389.00;;;18.64;
46015;BME280;36844;51.898;-0.874;2022-10-31T04:43:17;100379.38;;;18.63;
46015;BME280;36844;51.898;-0.874;2022-10-31T04:45:42;100379.78;;;18.61;
46015;BME280;36844;51.898;-0.874;2022-10-31T04:48:07;100380.56;;;18.62;
46015;BME280;36844;51.898;-0.874;2022-10-31T04:50:33;100385.19;;;18.61;
46015;BME280;36844;51.898;-0.874;2022-10-31T04:52:58;100384.41;;;18.61;
46015;BME280;36844;51.898;-0.874;2022-10-31T04:55:23;100387.13;;;18.61;
46015;BME280;36844;51.898;-0.874;2022-10-31T04:57:48;100387.53;;;18.59;
46015;BME280;36844;51.898;-0.874;2022-10-31T05:00:15;100386.75;;;18.59;
46015;BME280;36844;51.898;-0.874;2022-10-31T05:02:51;100384.03;;;18.59;
46015;BME280;36844;51.898;-0.874;2022-10-31T05:05:17;100382.53;;;18.58;
46015;BME280;36844;51.898;-0.874;2022-10-31T05:07:43;100383.31;;;18.58;
46015;BME280;36844;51.898;-0.874;2022-10-31T05:10:09;100389.84;;;18.57;
46015;BME280;36844;51.898;-0.874;2022-10-31T05:12:35;100385.59;;;18.56;
46015;BME280;36844;51.898;-0.874;2022-10-31T05:15:00;100389.06;;;18.57;
46015;BME280;36844;51.898;-0.874;2022-10-31T05:17:25;100381.38;;;18.55;
46015;BME280;36844;51.898;-0.874;2022-10-31T05:19:50;100376.00;;;18.55;
46015;BME280;36844;51.898;-0.874;2022-10-31T05:22:15;100367.16;;;18.55;
46015;BME280;36844;51.898;-0.874;2022-10-31T05:24:41;100371.00;;;18.54;
46015;BME280;36844;51.898;-0.874;2022-10-31T05:27:06;100371.00;;;18.54;
46015;BME280;36844;51.898;-0.874;2022-10-31T05:29:31;100365.25;;;18.52;
46015;BME280;36844;51.898;-0.874;2022-10-31T05:31:58;100361.38;;;18.53;
46015;BME280;36844;51.898;-0.874;2022-10-31T05:34:23;100362.53;;;18.52;
46015;BME280;36844;51.898;-0.874;2022-10-31T05:36:48;100365.25;;;18.52;
46015;BME280;36844;51.898;-0.874;2022-10-31T05:39:14;100368.34;;;18.50;
46015;BME280;36844;51.898;-0.874;2022-10-31T05:41:39;100361.03;;;18.51;
46015;BME280;36844;51.898;-0.874;2022-10-31T05:44:04;100357.56;;;18.50;
46015;BME280;36844;51.898;-0.874;2022-10-31T05:46:29;100364.09;;;18.49;
46015;BME280;36844;51.898;-0.874;2022-10-31T05:48:54;100361.41;;;18.49;
46015;BME280;36844;51.898;-0.874;2022-10-31T05:51:20;100355.28;;;18.49;
46015;BME280;36844;51.898;-0.874;2022-10-31T05:53:45;100354.50;;;18.48;
46015;BME280;36844;51.898;-0.874;2022-10-31T05:56:11;100348.31;;;18.48;
46015;BME280;36844;51.898;-0.874;2022-10-31T05:58:36;100350.25;;;18.47;
46015;BME280;36844;51.898;-0.874;2022-10-31T06:01:01;100346.81;;;18.47;
46015;BME280;36844;51.898;-0.874;2022-10-31T06:03:26;100347.56;;;18.47;
46015;BME280;36844;51.898;-0.874;2022-10-31T06:05:51;100345.25;;;18.46;
46015;BME280;36844;51.898;-0.874;2022-10-31T06:08:17;100347.22;;;18.45;
46015;BME280;36844;51.898;-0.874;2022-10-31T06:10:42;100346.44;;;18.45;
46015;BME280;36844;51.898;-0.874;2022-10-31T06:13:07;100349.91;;;18.45;
46015;BME280;36844;51.898;-0.874;2022-10-31T06:15:33;100345.66;;;18.44;
46015;BME280;36844;51.898;-0.874;2022-10-31T06:18:02;100344.16;;;18.43;
46015;BME280;36844;51.898;-0.874;2022-10-31T06:20:27;100340.69;;;18.43;
46015;BME280;36844;51.898;-0.874;2022-10-31T06:22:53;100338.38;;;18.41;
46015;BME280;36844;51.898;-0.874;2022-10-31T06:25:18;100339.16;;;18.42;
46015;BME280;36844;51.898;-0.874;2022-10-31T06:27:43;100329.13;;;18.42;
46015;BME280;36844;51.898;-0.874;2022-10-31T06:30:08;100324.91;;;18.41;
46015;BME280;36844;51.898;-0.874;2022-10-31T06:32:34;100324.91;;;18.41;
46015;BME280;36844;51.898;-0.874;2022-10-31T06:34:59;100326.44;;;18.42;
46015;BME280;36844;51.898;-0.874;2022-10-31T06:37:24;100324.91;;;18.41;
46015;BME280;36844;51.898;-0.874;2022-10-31T06:39:49;100334.50;;;18.42;
46015;BME280;36844;51.898;-0.874;2022-10-31T06:42:15;100321.44;;;18.41;
46015;BME280;36844;51.898;-0.874;2022-10-31T06:44:40;100314.50;;;18.40;
46015;BME280;36844;51.898;-0.874;2022-10-31T06:47:06;100315.28;;;18.40;
46015;BME280;36844;51.898;-0.874;2022-10-31T06:49:31;100312.97;;;18.39;
46015;BME280;36844;51.898;-0.874;2022-10-31T06:51:56;100319.16;;;18.39;
46015;BME280;36844;51.898;-0.874;2022-10-31T06:54:22;100307.59;;;18.39;
46015;BME280;36844;51.898;-0.874;2022-10-31T06:56:47;100303.38;;;18.38;
46015;BME280;36844;51.898;-0.874;2022-10-31T06:59:13;100310.69;;;18.37;
46015;BME280;36844;51.898;-0.874;2022-10-31T07:01:38;100308.75;;;18.38;
46015;BME280;36844;51.898;-0.874;2022-10-31T07:04:03;100302.59;;;18.37;
46015;BME280;36844;51.898;-0.874;2022-10-31T07:06:28;100296.44;;;18.37;
46015;BME280;36844;51.898;-0.874;2022-10-31T07:08:54;100301.06;;;18.36;
46015;BME280;36844;51.898;-0.874;2022-10-31T07:11:19;100301.06;;;18.36;
46015;BME280;36844;51.898;-0.874;2022-10-31T07:13:44;100301.50;;;18.35;
46015;BME280;36844;51.898;-0.874;2022-10-31T07:16:09;100308.81;;;18.34;
46015;BME280;36844;51.898;-0.874;2022-10-31T07:18:39;100311.50;;;18.34;
46015;BME280;36844;51.898;-0.874;2022-10-31T07:21:04;100310.72;;;18.34;
46015;BME280;36844;51.898;-0.874;2022-10-31T07:23:29;100321.50;;;18.34;
46015;BME280;36844;51.898;-0.874;2022-10-31T07:25:55;100320.75;;;18.33;
46015;BME280;36844;51.898;-0.874;2022-10-31T07:28:20;100328.06;;;18.33;
46015;BME280;36844;51.898;-0.874;2022-10-31T07:30:49;100314.56;;;18.33;
46015;BME280;36844;51.898;-0.874;2022-10-31T07:33:14;100309.19;;;18.33;
46015;BME280;36844;51.898;-0.874;2022-10-31T07:35:39;100321.91;;;18.32;
46015;BME280;36844;51.898;-0.874;2022-10-31T07:38:08;100315.34;;;18.33;
46015;BME280;36844;51.898;-0.874;2022-10-31T07:40:34;100313.44;;;18.34;
46015;BME280;36844;51.898;-0.874;2022-10-31T07:42:59;100324.22;;;18.34;
46015;BME280;36844;51.898;-0.874;2022-10-31T07:45:24;100316.13;;;18.34;
46015;BME280;36844;51.898;-0.874;2022-10-31T07:47:50;100327.69;;;18.34;
46015;BME280;36844;51.898;-0.874;2022-10-31T07:50:17;100326.91;;;18.34;
46015;BME280;36844;51.898;-0.874;2022-10-31T07:52:42;100328.47;;;18.35;
46015;BME280;36844;51.898;-0.874;2022-10-31T07:55:08;100317.66;;;18.35;
46015;BME280;36844;51.898;-0.874;2022-10-31T07:57:33;100318.41;;;18.35;
46015;BME280;36844;51.898;-0.874;2022-10-31T07:59:58;100313.75;;;18.36;
46015;BME280;36844;51.898;-0.874;2022-10-31T08:02:24;100324.56;;;18.36;
46015;BME280;36844;51.898;-0.874;2022-10-31T08:04:49;100325.31;;;18.36;
46015;BME280;36844;51.898;-0.874;2022-10-31T08:07:15;100324.56;;;18.36;
46015;BME280;36844;51.898;-0.874;2022-10-31T08:09:40;100328.03;;;18.36;
46015;BME280;36844;51.898;-0.874;2022-10-31T08:12:05;100325.31;;;18.36;
46015;BME280;36844;51.898;-0.874;2022-10-31T08:14:31;100329.94;;;18.36;
46015;BME280;36844;51.898;-0.874;2022-10-31T08:16:56;100330.72;;;18.36;
46015;BME280;36844;51.898;-0.874;2022-10-31T08:19:21;100315.31;;;18.37;
46015;BME280;36844;51.898;-0.874;2022-10-31T08:21:49;100319.94;;;18.36;
46015;BME280;36844;51.898;-0.874;2022-10-31T08:24:15;100309.91;;;18.37;
46015;BME280;36844;51.898;-0.874;2022-10-31T08:26:40;100309.91;;;18.37;
46015;BME280;36844;51.898;-0.874;2022-10-31T08:29:05;100315.31;;;18.37;
46015;BME280;36844;51.898;-0.874;2022-10-31T08:31:32;100307.22;;;18.37;
46015;BME280;36844;51.898;-0.874;2022-10-31T08:33:57;100309.91;;;18.37;
46015;BME280;36844;51.898;-0.874;2022-10-31T08:36:22;100309.91;;;18.37;
46015;BME280;36844;51.898;-0.874;2022-10-31T08:38:48;100304.53;;;18.37;
46015;BME280;36844;51.898;-0.874;2022-10-31T08:41:13;100305.31;;;18.37;
46015;BME280;36844;51.898;-0.874;2022-10-31T08:43:39;100304.53;;;18.37;
46015;BME280;36844;51.898;-0.874;2022-10-31T08:46:04;100306.06;;;18.38;
46015;BME280;36844;51.898;-0.874;2022-10-31T08:48:29;100291.81;;;18.37;
46015;BME280;36844;51.898;-0.874;2022-10-31T08:50:56;100302.19;;;18.39;
46015;BME280;36844;51.898;-0.874;2022-10-31T08:53:21;100297.22;;;18.37;
46015;BME280;36844;51.898;-0.874;2022-10-31T08:55:47;100286.44;;;18.37;
46015;BME280;36844;51.898;-0.874;2022-10-31T08:58:13;100289.88;;;18.38;
46015;BME280;36844;51.898;-0.874;2022-10-31T09:00:39;100281.81;;;18.38;
46015;BME280;36844;51.898;-0.874;2022-10-31T09:03:09;100283.72;;;18.37;
46015;BME280;36844;51.898;-0.874;2022-10-31T09:05:35;100285.28;;;18.38;
46015;BME280;36844;51.898;-0.874;2022-10-31T09:08:01;100286.03;;;18.39;
46015;BME280;36844;51.898;-0.874;2022-10-31T09:10:26;100277.94;;;18.39;
46015;BME280;36844;51.898;-0.874;2022-10-31T09:12:56;100275.22;;;18.39;
46015;BME280;36844;51.898;-0.874;2022-10-31T09:15:22;100269.09;;;18.38;
46015;BME280;36844;51.898;-0.874;2022-10-31T09:17:47;100270.59;;;18.39;
46015;BME280;36844;51.898;-0.874;2022-10-31T09:20:12;100264.44;;;18.39;
46015;BME280;36844;51.898;-0.874;2022-10-31T09:22:38;100270.59;;;18.39;
46015;BME280;36844;51.898;-0.874;2022-10-31T09:25:03;100259.06;;;18.39;
46015;BME280;36844;51.898;-0.874;2022-10-31T09:27:28;100253.25;;;18.40;
46015;BME280;36844;51.898;-0.874;2022-10-31T09:29:53;100255.19;;;18.40;
46015;BME280;36844;51.898;-0.874;2022-10-31T09:32:19;100260.56;;;18.40;
46015;BME280;36844;51.898;-0.874;2022-10-31T09:34:44;100261.34;;;18.40;
46015;BME280;36844;51.898;-0.874;2022-10-31T09:37:09;100249.41;;;18.41;
46015;BME280;36844;51.898;-0.874;2022-10-31T09:39:34;100257.09;;;18.43;
46015;BME280;36844;51.898;-0.874;2022-10-31T09:52:24;100234.34;;;18.44;
46015;BME280;36844;51.898;-0.874;2022-10-31T09:55:00;100224.72;;;18.43;
46015;BME280;36844;51.898;-0.874;2022-10-31T09:57:29;100227.41;;;18.43;
46015;BME280;36844;51.898;-0.874;2022-10-31T09:59:56;100225.09;;;18.45;
46015;BME280;36844;51.898;-0.874;2022-10-31T10:02:23;100227.78;;;18.45;
46015;BME280;36844;51.898;-0.874;2022-10-31T10:04:54;100220.84;;;18.44;
46015;BME280;36844;51.898;-0.874;2022-10-31T10:07:28;100233.59;;;18.43;
46015;BME280;36844;51.898;-0.874;2022-10-31T10:09:55;100238.97;;;18.43;
46015;BME280;36844;51.898;-0.874;2022-10-31T10:12:45;100226.25;;;18.44;
46015;BME280;36844;51.898;-0.874;2022-10-31T10:15:26;100234.75;;;18.42;
46015;BME280;36844;51.898;-0.874;2022-10-31T10:18:02;100229.75;;;18.41;
46015;BME280;36844;51.898;-0.874;2022-10-31T10:20:54;100227.06;;;18.41;
46015;BME280;36844;51.898;-0.874;2022-10-31T10:23:23;100234.38;;;18.40;
46015;BME280;36844;51.898;-0.874;2022-10-31T10:25:54;100228.22;;;18.40;
46015;BME280;36844;51.898;-0.874;2022-10-31T10:28:26;100224.78;;;18.39;
46015;BME280;36844;51.898;-0.874;2022-10-31T10:38:54;100219.00;;;18.37;
46015;BME280;36844;51.898;-0.874;2022-10-31T10:41:21;100212.84;;;18.37;
46015;BME280;36844;51.898;-0.874;2022-10-31T10:43:52;100204.75;;;18.37;
46015;BME280;36844;51.898;-0.874;2022-10-31T10:51:58;100205.91;;;18.36;
46015;BME280;36844;51.898;-0.874;2022-10-31T10:57:09;100182.84;;;18.35;
46015;BME280;36844;51.898;-0.874;2022-10-31T10:59:36;100191.31;;;18.33;
46015;BME280;36844;51.898;-0.874;2022-10-31T11:02:02;100190.19;;;18.34;
46015;BME280;36844;51.898;-0.874;2022-10-31T11:04:32;100181.31;;;18.34;
46015;BME280;36844;51.898;-0.874;2022-10-31T11:07:08;100180.16;;;18.35;
46015;BME280;36844;51.898;-0.874;2022-10-31T11:09:34;100177.47;;;18.35;
46015;BME280;36844;51.898;-0.874;2022-10-31T11:11:59;100155.91;;;18.35;
46015;BME280;36844;51.898;-0.874;2022-10-31T11:14:25;100151.25;;;18.35;
46015;BME280;36844;51.898;-0.874;2022-10-31T11:16:53;100149.28;;;18.36;
46015;BME280;36844;51.898;-0.874;2022-10-31T11:21:44;100149.28;;;18.36;
46015;BME280;36844;51.898;-0.874;2022-10-31T11:26:38;100149.28;;;18.36;
46015;BME280;36844;51.898;-0.874;2022-10-31T11:29:04;100153.19;;;18.35;
46015;BME280;36844;51.898;-0.874;2022-10-31T11:31:30;100145.13;;;18.35;
46015;BME280;36844;51.898;-0.874;2022-10-31T11:33:59;100143.16;;;18.35;
46015;BME280;36844;51.898;-0.874;2022-10-31T11:36:43;100140.47;;;18.35;
46015;BME280;36844;51.898;-0.874;2022-10-31T11:39:20;100137.03;;;18.35;
46015;BME280;36844;51.898;-0.874;2022-10-31T11:41:46;100118.16;;;18.35;
46015;BME280;36844;51.898;-0.874;2022-10-31T11:44:19;100114.25;;;18.36;
46015;BME280;36844;51.898;-0.874;2022-10-31T11:49:13;100101.97;;;18.35;
46015;BME280;36844;51.898;-0.874;2022-10-31T11:51:40;100106.16;;;18.36;
46015;BME280;36844;51.898;-0.874;2022-10-31T11:54:05;100101.53;;;18.36;
46015;BME280;36844;51.898;-0.874;2022-10-31T11:56:41;100093.44;;;18.36;
46015;BME280;36844;51.898;-0.874;2022-10-31T12:01:52;100082.66;;;18.36;
46015;BME280;36844;51.898;-0.874;2022-10-31T12:04:17;100079.19;;;18.36;
46015;BME280;36844;51.898;-0.874;2022-10-31T12:06:43;100079.19;;;18.36;
46015;BME280;36844;51.898;-0.874;2022-10-31T12:09:21;100063.00;;;18.36;
46015;BME280;36844;51.898;-0.874;2022-10-31T12:16:55;100062.28;;;18.35;
46015;BME280;36844;51.898;-0.874;2022-10-31T12:19:32;100048.78;;;18.35;
46015;BME280;36844;51.898;-0.874;2022-10-31T12:25:14;100042.66;;;18.35;
46015;BME280;36844;51.898;-0.874;2022-10-31T12:30:21;100031.09;;;18.34;
46015;BME280;36844;51.898;-0.874;2022-10-31T12:33:12;100023.03;;;18.34;
46015;BME280;36844;51.898;-0.874;2022-10-31T12:45:58;99984.03;;;18.39;
46015;BME280;36844;51.898;-0.874;2022-10-31T12:53:46;99978.16;;;18.44;
46015;BME280;36844;51.898;-0.874;2022-10-31T12:58:49;99953.84;;;18.47;
46015;BME280;36844;51.898;-0.874;2022-10-31T13:01:22;99957.66;;;18.50;
46015;BME280;36844;51.898;-0.874;2022-10-31T13:06:17;99949.94;;;18.52;
46015;BME280;36844;51.898;-0.874;2022-10-31T13:08:51;99937.94;;;18.53;
46015;BME280;36844;51.898;-0.874;2022-10-31T13:11:37;99937.16;;;18.56;
46015;BME280;36844;51.898;-0.874;2022-10-31T13:14:07;99934.44;;;18.56;
46015;BME280;36844;51.898;-0.874;2022-10-31T13:16:35;99926.72;;;18.58;
46015;BME280;36844;51.898;-0.874;2022-10-31T13:19:03;99920.13;;;18.59;
46015;BME280;36844;51.898;-0.874;2022-10-31T13:21:33;99910.47;;;18.61;
46015;BME280;36844;51.898;-0.874;2022-10-31T13:24:00;99898.53;;;18.62;
46015;BME280;36844;51.898;-0.874;2022-10-31T13:28:59;99890.38;;;18.66;
46015;BME280;36844;51.898;-0.874;2022-10-31T13:31:25;99884.97;;;18.66;
46015;BME280;36844;51.898;-0.874;2022-10-31T13:33:58;99885.28;;;18.68;
46015;BME280;36844;51.898;-0.874;2022-10-31T13:36:42;99872.56;;;18.68;
46015;BME280;36844;51.898;-0.874;2022-10-31T13:39:21;99875.59;;;18.70;
46015;BME280;36844;51.898;-0.874;2022-10-31T13:46:41;99864.00;;;18.73;
46015;BME280;36844;51.898;-0.874;2022-10-31T13:49:52;99857.00;;;18.76;
46015;BME280;36844;51.898;-0.874;2022-10-31T13:51:52;99851.63;;;18.76;
46015;BME280;36844;51.898;-0.874;2022-10-31T13:54:21;99847.75;;;18.77;
46015;BME280;36844;51.898;-0.874;2022-10-31T13:56:48;99835.00;;;18.77;
46015;BME280;36844;51.898;-0.874;2022-10-31T13:59:23;99832.66;;;18.80;
46015;BME280;36844;51.898;-0.874;2022-10-31T14:01:56;99830.72;;;18.80;
46015;BME280;36844;51.898;-0.874;2022-10-31T14:09:31;99800.63;;;18.82;
46015;BME280;36844;51.898;-0.874;2022-10-31T14:11:59;99804.06;;;18.82;
46015;BME280;36844;51.898;-0.874;2022-10-31T14:14:26;99797.50;;;18.83;
46015;BME280;36844;51.898;-0.874;2022-10-31T14:16:55;99789.41;;;18.83;
46015;BME280;36844;51.898;-0.874;2022-10-31T14:19:21;99784.78;;;18.84;
46015;BME280;36844;51.898;-0.874;2022-10-31T14:21:47;99790.19;;;18.84;
46015;BME280;36844;51.898;-0.874;2022-10-31T14:29:33;99768.25;;;18.82;
46015;BME280;36844;51.898;-0.874;2022-10-31T14:44:51;99733.78;;;18.73;
46015;BME280;36844;51.898;-0.874;2022-10-31T14:47:28;99734.94;;;18.72;
46015;BME280;36844;51.898;-0.874;2022-10-31T14:50:18;99728.47;;;18.69;
46015;BME280;36844;51.898;-0.874;2022-10-31T14:52:47;99726.91;;;18.68;
46015;BME280;36844;51.898;-0.874;2022-10-31T14:55:14;99728.53;;;18.66;
46015;BME280;36844;51.898;-0.874;2022-10-31T14:57:42;99716.97;;;18.65;
46015;BME280;36844;51.898;-0.874;2022-10-31T15:00:16;99703.88;;;18.64;
46015;BME280;36844;51.898;-0.874;2022-10-31T15:02:50;99707.78;;;18.63;
46015;BME280;36844;51.898;-0.874;2022-10-31T15:05:17;99699.34;;;18.61;
46015;BME280;36844;51.898;-0.874;2022-10-31T15:07:56;99693.59;;;18.59;
46015;BME280;36844;51.898;-0.874;2022-10-31T15:10:29;99681.69;;;18.56;
46015;BME280;36844;51.898;-0.874;2022-10-31T15:12:55;99668.66;;;18.55;
46015;BME280;36844;51.898;-0.874;2022-10-31T15:15:21;99668.28;;;18.53;
46015;BME280;36844;51.898;-0.874;2022-10-31T15:17:59;99657.19;;;18.51;
46015;BME280;36844;51.898;-0.874;2022-10-31T15:20:26;99656.09;;;18.48;
46015;BME280;36844;51.898;-0.874;2022-10-31T15:22:53;99658.00;;;18.48;
46015;BME280;36844;51.898;-0.874;2022-10-31T15:25:20;99643.03;;;18.47;
46015;BME280;36844;51.898;-0.874;2022-10-31T15:27:47;99635.34;;;18.45;
46015;BME280;36844;51.898;-0.874;2022-10-31T15:30:19;99635.00;;;18.43;
46015;BME280;36844;51.898;-0.874;2022-10-31T15:32:48;99629.63;;;18.43;
46015;BME280;36844;51.898;-0.874;2022-10-31T15:35:22;99616.13;;;18.43;
46015;BME280;36844;51.898;-0.874;2022-10-31T15:37:47;99605.34;;;18.43;
46015;BME280;36844;51.898;-0.874;2022-10-31T15:40:14;99603.41;;;18.44;
46015;BME280;36844;51.898;-0.874;2022-10-31T15:42:40;99595.72;;;18.42;
46015;BME280;36844;51.898;-0.874;2022-10-31T15:47:34;99584.13;;;18.45;